Time;durP1;ratioP1;P1;durP2;ratioP2;P2;SDS_P1;SDS_P2;PMS_P1;PMS_P2;Temp;Humidity;BMP_temperature;BMP_pressure;BME280_temperature;BME280_humidity;BME280_pressure;Samples;Min_cycle;Max_cycle;Signal;HPM_P1;HPM_P2
2023/05/08 00:01:31;;;;;;;14.00;9.17;;;12.90;1.00;;;;;;4924354;29;20262;-81
2023/05/08 00:03:58;;;;;;;10.47;9.50;;;12.90;1.00;;;;;;4920438;29;20234;-83
2023/05/08 00:06:26;;;;;;;11.20;9.70;;;12.90;1.00;;;;;;4916540;29;20207;-84
2023/05/08 00:08:56;;;;;;;10.20;9.20;;;12.90;1.00;;;;;;4936213;29;20281;-80
2023/05/08 00:11:23;;;;;;;10.40;9.40;;;12.80;1.00;;;;;;4918568;29;20211;-82
2023/05/08 00:13:50;;;;;;;10.20;9.30;;;12.80;1.00;;;;;;4931048;29;20204;-81
2023/05/08 00:16:17;;;;;;;9.73;8.83;;;12.90;1.00;;;;;;4915726;29;20271;-85
2023/05/08 00:18:45;;;;;;;10.00;9.00;;;12.90;1.00;;;;;;4928136;28;20555;-82
2023/05/08 00:21:12;;;;;;;10.80;9.90;;;12.90;1.00;;;;;;4924749;29;20251;-85
2023/05/08 00:23:40;;;;;;;10.17;9.23;;;12.90;1.00;;;;;;4928442;29;20565;-87
2023/05/08 00:26:07;;;;;;;10.73;9.67;;;12.90;1.00;;;;;;4907923;29;20196;-84
2023/05/08 00:28:34;;;;;;;10.67;9.37;;;12.90;1.00;;;;;;4931605;29;20217;-82
2023/05/08 00:31:01;;;;;;;10.73;9.67;;;12.90;1.00;;;;;;4915285;29;20723;-85
2023/05/08 00:33:28;;;;;;;10.20;9.30;;;12.90;1.00;;;;;;4913510;29;20291;-82
2023/05/08 00:36:03;;;;;;;10.60;9.60;;;12.90;1.00;;;;;;4921835;29;20200;-81
2023/05/08 00:38:35;;;;;;;10.20;9.30;;;12.90;1.00;;;;;;4932046;29;20199;-83
2023/05/08 00:41:04;;;;;;;11.07;9.93;;;12.80;1.00;;;;;;4939020;28;20206;-81
2023/05/08 00:43:32;;;;;;;10.03;9.03;;;12.70;1.00;;;;;;4934608;29;20215;-84
2023/05/08 00:46:01;;;;;;;10.00;9.00;;;12.80;1.00;;;;;;4933514;29;20192;-82
2023/05/08 00:48:32;;;;;;;10.77;9.70;;;12.80;1.00;;;;;;4936445;29;20192;-85
2023/05/08 00:51:02;;;;;;;11.03;10.03;;;12.80;1.00;;;;;;4917730;29;20188;-81
2023/05/08 00:53:36;;;;;;;10.20;8.80;;;12.80;1.00;;;;;;4940776;28;20200;-82
2023/05/08 00:56:04;;;;;;;11.10;9.00;;;12.80;1.00;;;;;;4932782;29;20802;-87
2023/05/08 00:58:32;;;;;;;11.80;10.70;;;12.90;1.00;;;;;;4919997;29;20716;-87
2023/05/08 01:01:00;;;;;;;10.43;9.53;;;12.80;1.00;;;;;;4946976;23;20244;-66
2023/05/08 01:03:28;;;;;;;10.60;9.63;;;12.80;1.00;;;;;;4930046;29;20231;-63
2023/05/08 01:05:56;;;;;;;11.07;9.97;;;12.80;1.00;;;;;;4939263;29;20217;-65
2023/05/08 01:08:24;;;;;;;11.40;9.33;;;12.80;1.00;;;;;;4935146;29;20191;-63
2023/05/08 01:11:00;;;;;;;10.60;9.60;;;12.80;1.00;;;;;;4947157;29;20274;-63
2023/05/08 01:13:45;;;;;;;11.27;10.27;;;12.80;1.00;;;;;;4953205;28;20285;-63
2023/05/08 01:16:43;;;;;;;12.47;11.10;;;12.70;1.00;;;;;;4944031;29;20663;-63
2023/05/08 01:19:25;;;;;;;11.33;10.33;;;12.70;1.00;;;;;;4924231;29;20212;-63
2023/05/08 01:21:54;;;;;;;11.07;9.90;;;12.70;1.00;;;;;;4929967;28;20192;-63
2023/05/08 01:24:59;;;;;;;10.80;9.80;;;12.60;1.00;;;;;;4929474;29;20224;-63
2023/05/08 01:27:58;;;;;;;10.90;9.73;;;12.60;1.00;;;;;;4920112;29;20199;-63
2023/05/08 01:30:34;;;;;;;12.50;11.20;;;12.60;1.00;;;;;;4896582;29;20671;-62
2023/05/08 01:33:16;;;;;;;10.77;9.77;;;12.60;1.00;;;;;;4948593;29;20444;-63
2023/05/08 01:36:03;;;;;;;11.23;10.23;;;12.50;1.00;;;;;;4946054;29;20234;-64
2023/05/08 01:38:56;;;;;;;11.13;10.03;;;12.60;1.00;;;;;;4925415;29;20195;-64
2023/05/08 01:41:29;;;;;;;11.20;10.10;;;12.50;1.00;;;;;;4923229;29;20199;-63
2023/05/08 01:43:57;;;;;;;13.43;10.57;;;12.50;1.00;;;;;;4928081;29;20694;-64
2023/05/08 01:46:27;;;;;;;12.70;10.73;;;12.60;1.00;;;;;;4916108;29;20291;-65
2023/05/08 01:49:29;;;;;;;11.13;10.10;;;12.50;1.00;;;;;;4941537;29;20195;-64
2023/05/08 01:52:06;;;;;;;11.07;9.80;;;12.50;1.00;;;;;;4884744;29;20204;-62
2023/05/08 01:54:41;;;;;;;11.27;10.07;;;12.50;1.00;;;;;;4921459;29;20686;-62
2023/05/08 01:57:10;;;;;;;11.80;10.70;;;12.50;1.00;;;;;;4921403;29;20719;-63
2023/05/08 01:59:38;;;;;;;11.57;10.47;;;12.50;1.00;;;;;;4932456;29;20204;-61
2023/05/08 02:02:08;;;;;;;11.77;10.53;;;12.40;1.00;;;;;;4955669;28;20325;-65
2023/05/08 02:04:36;;;;;;;11.23;10.23;;;12.40;1.00;;;;;;4945010;28;20218;-66
2023/05/08 02:07:06;;;;;;;12.23;9.80;;;12.40;1.00;;;;;;4947948;28;20185;-66
2023/05/08 02:09:34;;;;;;;11.73;10.60;;;12.30;1.00;;;;;;4955602;28;20202;-65
2023/05/08 02:12:02;;;;;;;12.10;11.00;;;12.30;1.00;;;;;;4958515;28;20902;-64
2023/05/08 02:14:30;;;;;;;11.63;10.43;;;12.30;1.00;;;;;;4953535;28;20218;-66
2023/05/08 02:17:00;;;;;;;11.67;10.57;;;12.30;1.00;;;;;;4943724;29;20221;-64
2023/05/08 02:19:29;;;;;;;12.17;10.97;;;12.30;1.00;;;;;;4936098;28;20209;-66
2023/05/08 02:21:59;;;;;;;12.00;10.90;;;12.20;1.00;;;;;;4944439;28;20274;-66
2023/05/08 02:24:26;;;;;;;12.47;10.73;;;12.20;1.00;;;;;;4937539;28;20571;-65
2023/05/08 02:26:55;;;;;;;12.90;10.80;;;12.20;1.00;;;;;;4943589;28;20198;-66
2023/05/08 02:29:24;;;;;;;12.20;11.00;;;12.20;1.00;;;;;;4933701;29;20204;-65
2023/05/08 02:31:53;;;;;;;12.07;10.87;;;12.20;1.00;;;;;;4960031;28;20199;-67
2023/05/08 02:34:23;;;;;;;12.70;10.53;;;12.20;1.00;;;;;;4932066;29;20297;-65
2023/05/08 02:36:51;;;;;;;12.47;11.13;;;12.20;1.00;;;;;;4955165;28;20201;-66
2023/05/08 02:39:20;;;;;;;12.13;10.97;;;12.20;1.00;;;;;;4950744;29;20246;-65
2023/05/08 02:41:47;;;;;;;11.47;10.27;;;12.20;1.00;;;;;;4953534;28;20207;-64
2023/05/08 02:44:15;;;;;;;12.13;10.67;;;12.20;1.00;;;;;;4955166;28;20211;-65
2023/05/08 02:46:57;;;;;;;12.93;11.53;;;12.20;1.00;;;;;;4938859;28;20285;-65
2023/05/08 02:49:55;;;;;;;12.57;10.97;;;12.20;1.00;;;;;;4949274;28;20809;-65
2023/05/08 02:52:33;;;;;;;12.17;10.87;;;12.20;1.00;;;;;;4956486;28;20678;-66
2023/05/08 02:55:10;;;;;;;12.83;11.63;;;12.20;1.00;;;;;;4957912;28;20203;-65
2023/05/08 02:57:37;;;;;;;12.23;10.33;;;12.20;1.00;;;;;;4943593;28;20202;-66
2023/05/08 03:00:25;;;;;;;12.00;10.80;;;12.20;1.00;;;;;;4949330;28;20194;-65
2023/05/08 03:02:58;;;;;;;12.90;11.60;;;12.10;1.00;;;;;;4964807;28;20629;-65
2023/05/08 03:05:37;;;;;;;12.50;11.30;;;12.10;1.00;;;;;;4952469;28;20229;-65
2023/05/08 03:08:09;;;;;;;16.30;11.93;;;12.10;1.00;;;;;;4947818;28;20655;-64
2023/05/08 03:10:38;;;;;;;12.57;11.33;;;12.10;1.00;;;;;;4966531;28;20630;-66
2023/05/08 03:13:08;;;;;;;12.73;11.40;;;12.10;1.00;;;;;;4959385;28;20651;-64
2023/05/08 03:15:57;;;;;;;13.60;11.77;;;12.10;1.00;;;;;;4962472;28;20305;-61
2023/05/08 03:18:58;;;;;;;12.60;11.40;;;12.10;1.00;;;;;;4941827;29;20285;-62
2023/05/08 03:21:29;;;;;;;11.90;10.80;;;12.10;1.00;;;;;;4937957;28;20216;-62
2023/05/08 03:23:58;;;;;;;11.70;10.50;;;12.10;1.00;;;;;;4948597;28;20227;-62
2023/05/08 03:26:26;;;;;;;11.63;10.53;;;12.10;1.00;;;;;;4940192;28;20580;-61
2023/05/08 03:28:55;;;;;;;12.30;11.10;;;12.10;1.00;;;;;;4933087;28;20200;-61
2023/05/08 03:31:27;;;;;;;12.03;10.77;;;12.10;1.00;;;;;;4946042;28;20298;-61
2023/05/08 03:33:55;;;;;;;12.77;11.47;;;12.00;1.00;;;;;;4949339;28;20211;-62
2023/05/08 03:36:25;;;;;;;12.53;11.27;;;12.00;1.00;;;;;;4949630;28;20671;-62
2023/05/08 03:38:52;;;;;;;12.50;10.87;;;12.00;1.00;;;;;;4937992;29;20708;-61
2023/05/08 03:41:21;;;;;;;12.43;11.27;;;12.10;1.00;;;;;;4944885;29;20221;-62
2023/05/08 03:43:49;;;;;;;12.97;11.47;;;12.10;1.00;;;;;;4933336;28;20211;-62
2023/05/08 03:46:16;;;;;;;13.37;11.70;;;12.00;1.00;;;;;;4942625;28;20674;-61
2023/05/08 03:48:45;;;;;;;12.73;11.13;;;12.00;1.00;;;;;;4951569;28;20287;-62
2023/05/08 03:51:15;;;;;;;12.17;10.90;;;11.90;1.00;;;;;;4940391;28;20199;-66
2023/05/08 03:53:42;;;;;;;11.83;10.73;;;11.90;1.00;;;;;;4918984;29;20828;-64
2023/05/08 03:56:09;;;;;;;12.43;11.23;;;11.90;1.00;;;;;;4939978;29;20560;-65
2023/05/08 03:58:48;;;;;;;14.20;12.70;;;11.90;1.00;;;;;;4942860;28;20191;-64
2023/05/08 04:01:26;;;;;;;11.87;10.77;;;11.90;1.00;;;;;;4915349;29;20337;-63
2023/05/08 04:04:26;;;;;;;14.30;12.90;;;11.90;1.00;;;;;;4934175;29;20264;-63
2023/05/08 04:06:53;;;;;;;17.40;15.30;;;11.90;1.00;;;;;;4941258;28;20643;-64
2023/05/08 04:09:37;;;;;;;13.13;11.90;;;12.00;1.00;;;;;;4938493;29;20255;-61
2023/05/08 04:12:32;;;;;;;12.87;11.57;;;12.00;1.00;;;;;;4918645;29;20517;-62
2023/05/08 04:15:05;;;;;;;16.33;14.73;;;12.10;1.00;;;;;;4940136;29;20203;-63
2023/05/08 04:17:49;;;;;;;17.70;12.87;;;12.00;1.00;;;;;;4944871;29;20599;-62
2023/05/08 04:20:21;;;;;;;16.70;15.00;;;12.10;1.00;;;;;;4930540;28;20638;-62
2023/05/08 04:22:51;;;;;;;13.70;12.27;;;12.10;1.00;;;;;;4950103;28;20695;-62
2023/05/08 04:25:20;;;;;;;13.63;12.30;;;12.20;1.00;;;;;;4930031;29;20335;-62
2023/05/08 04:27:52;;;;;;;23.57;21.00;;;12.20;1.00;;;;;;4926515;28;20200;-62
2023/05/08 04:30:20;;;;;;;11.07;9.90;;;12.90;1.00;;;;;;4928599;29;20667;-61
2023/05/08 04:32:49;;;;;;;10.97;9.97;;;13.00;1.00;;;;;;4941937;28;20195;-63
2023/05/08 04:35:17;;;;;;;11.23;10.17;;;12.80;1.00;;;;;;4942647;28;20672;-62
2023/05/08 04:37:46;;;;;;;11.40;10.37;;;12.70;1.00;;;;;;4928884;29;20295;-63
2023/05/08 04:40:13;;;;;;;12.70;11.40;;;12.70;1.00;;;;;;4929991;29;20578;-62
2023/05/08 04:42:46;;;;;;;11.20;10.20;;;12.70;1.00;;;;;;4929582;29;20747;-63
2023/05/08 04:45:15;;;;;;;10.77;9.87;;;12.70;1.00;;;;;;4922872;29;20239;-62
2023/05/08 04:47:42;;;;;;;11.90;10.37;;;12.80;1.00;;;;;;4923228;29;20195;-62
2023/05/08 04:50:10;;;;;;;10.63;9.63;;;12.90;1.00;;;;;;4930101;29;20262;-62
2023/05/08 04:52:37;;;;;;;11.40;10.30;;;13.00;1.00;;;;;;4922762;29;20682;-63
2023/05/08 04:55:05;;;;;;;11.00;9.90;;;13.20;1.00;;;;;;4933279;29;20206;-63
2023/05/08 04:57:34;;;;;;;13.03;10.13;;;13.60;1.00;;;;;;4930225;29;20263;-62
2023/05/08 05:00:03;;;;;;;11.87;9.37;;;14.50;1.00;;;;;;4927991;29;20207;-63
2023/05/08 05:02:34;;;;;;;11.93;9.70;;;14.80;1.00;;;;;;4929355;29;20580;-63
2023/05/08 05:05:02;;;;;;;10.90;9.20;;;14.80;1.00;;;;;;4945519;29;20226;-63
2023/05/08 05:07:29;;;;;;;9.15;8.25;;;14.70;1.00;;;;;;4938210;29;20235;-63
2023/05/08 05:09:56;;;;;;;10.40;8.55;;;14.50;1.00;;;;;;4936301;29;20780;-62
2023/05/08 05:12:23;;;;;;;10.00;9.00;;;14.30;1.00;;;;;;4948806;29;20825;-63
2023/05/08 05:14:51;;;;;;;10.18;9.23;;;14.20;1.00;;;;;;4937095;29;20299;-63
2023/05/08 05:17:18;;;;;;;10.90;9.90;;;14.00;1.00;;;;;;4904685;29;20285;-62
2023/05/08 05:19:46;;;;;;;10.53;9.43;;;14.10;1.00;;;;;;4945996;29;20729;-62
2023/05/08 05:22:13;;;;;;;10.40;9.40;;;14.30;1.00;;;;;;4955131;28;20723;-63
2023/05/08 05:24:40;;;;;;;12.53;10.57;;;14.40;1.00;;;;;;4934189;29;20226;-63
2023/05/08 05:27:08;;;;;;;9.60;8.45;;;14.60;1.00;;;;;;4944429;29;20199;-62
2023/05/08 05:29:35;;;;;;;11.80;10.60;;;14.70;1.00;;;;;;4951132;29;20219;-63
2023/05/08 05:32:02;;;;;;;12.52;9.68;;;14.70;1.00;;;;;;4944678;28;20299;-64
2023/05/08 05:34:29;;;;;;;10.30;9.20;;;14.80;1.00;;;;;;4930086;29;20248;-63
2023/05/08 05:36:56;;;;;;;10.10;9.07;;;14.90;1.00;;;;;;4936018;29;20192;-63
2023/05/08 05:39:24;;;;;;;11.45;8.20;;;15.00;1.00;;;;;;4934618;29;20691;-63
2023/05/08 05:41:51;;;;;;;12.20;10.98;;;15.10;1.00;;;;;;4938641;29;20201;-63
2023/05/08 05:44:18;;;;;;;10.55;9.02;;;15.30;1.00;;;;;;4948978;28;20274;-62
2023/05/08 05:46:47;;;;;;;10.25;9.15;;;15.10;1.00;;;;;;4932756;29;20209;-64
2023/05/08 05:49:15;;;;;;;10.40;9.40;;;14.90;1.00;;;;;;4948068;29;20188;-62
2023/05/08 05:51:42;;;;;;;11.27;10.15;;;14.90;1.00;;;;;;4939924;29;20676;-63
2023/05/08 05:54:09;;;;;;;10.25;9.15;;;15.50;1.00;;;;;;4950692;29;20210;-62
2023/05/08 05:56:37;;;;;;;10.50;9.25;;;15.50;1.00;;;;;;4939966;29;20266;-62
2023/05/08 05:59:04;;;;;;;10.43;9.43;;;15.40;1.00;;;;;;4920990;29;20223;-61
2023/05/08 06:01:31;;;;;;;9.77;8.77;;;15.40;1.00;;;;;;4967173;28;20643;-64
2023/05/08 06:03:58;;;;;;;12.93;9.82;;;15.40;1.00;;;;;;4928148;29;20198;-63
2023/05/08 06:06:25;;;;;;;12.10;9.30;;;15.50;1.00;;;;;;4946272;29;20227;-64
2023/05/08 06:08:53;;;;;;;11.00;9.27;;;15.50;1.00;;;;;;4930914;29;20215;-63
2023/05/08 06:11:22;;;;;;;9.55;8.65;;;15.60;1.00;;;;;;4937700;29;20198;-62
2023/05/08 06:13:49;;;;;;;10.60;8.73;;;16.20;1.00;;;;;;4945891;29;20278;-61
2023/05/08 06:16:19;;;;;;;10.75;9.20;;;16.10;1.00;;;;;;4931944;28;20578;-61
2023/05/08 06:18:46;;;;;;;10.07;8.50;;;16.20;1.00;;;;;;4942838;29;20737;-61
2023/05/08 06:21:13;;;;;;;14.52;8.50;;;16.10;1.00;;;;;;4937567;29;20235;-63
2023/05/08 06:23:41;;;;;;;8.25;7.43;;;16.50;1.00;;;;;;4947224;29;20203;-63
2023/05/08 06:26:08;;;;;;;9.98;8.90;;;16.70;1.00;;;;;;4936435;29;20757;-64
2023/05/08 06:28:35;;;;;;;9.75;8.85;;;16.60;1.00;;;;;;4927702;29;20215;-62
2023/05/08 06:31:02;;;;;;;10.05;8.85;;;16.10;1.00;;;;;;4936549;29;20194;-62
2023/05/08 06:33:30;;;;;;;9.70;8.68;;;15.90;1.00;;;;;;4945232;29;20286;-63
2023/05/08 06:35:57;;;;;;;11.25;9.15;;;16.00;1.00;;;;;;4941225;28;20293;-62
2023/05/08 06:38:24;;;;;;;10.20;9.18;;;16.00;1.00;;;;;;4934659;29;20628;-62
2023/05/08 06:40:51;;;;;;;10.73;9.68;;;15.80;1.00;;;;;;4938470;29;20272;-61
2023/05/08 06:43:18;;;;;;;10.70;9.60;;;15.70;1.00;;;;;;4947597;28;20238;-63
2023/05/08 06:45:45;;;;;;;10.20;9.10;;;15.60;1.00;;;;;;4919780;29;20214;-63
2023/05/08 06:48:12;;;;;;;11.07;9.88;;;15.50;1.00;;;;;;4935762;29;20224;-63
2023/05/08 06:50:39;;;;;;;10.60;9.65;;;15.50;1.00;;;;;;4940235;29;20562;-62
2023/05/08 06:53:07;;;;;;;11.10;10.10;;;15.40;1.00;;;;;;4951892;28;20191;-61
2023/05/08 06:55:34;;;;;;;10.18;9.25;;;15.30;1.00;;;;;;4939279;28;20278;-62
2023/05/08 06:58:01;;;;;;;9.77;8.93;;;15.30;1.00;;;;;;4963876;28;20199;-62
2023/05/08 07:00:28;;;;;;;11.15;9.50;;;15.30;1.00;;;;;;4927840;29;20596;-61
2023/05/08 07:02:55;;;;;;;11.35;9.10;;;15.50;1.00;;;;;;4942309;28;20230;-62
2023/05/08 07:05:22;;;;;;;10.48;9.57;;;15.60;1.00;;;;;;4949598;28;20215;-62
2023/05/08 07:07:49;;;;;;;11.60;10.43;;;15.50;1.00;;;;;;4931759;28;20222;-61
2023/05/08 07:10:18;;;;;;;11.32;10.20;;;15.60;1.00;;;;;;4962386;28;20229;-61
2023/05/08 07:12:45;;;;;;;11.85;9.50;;;15.60;1.00;;;;;;4944539;28;20717;-62
2023/05/08 07:15:13;;;;;;;11.13;10.02;;;15.50;1.00;;;;;;4942953;28;20912;-63
2023/05/08 07:17:52;;;;;;;13.13;10.10;;;15.70;1.00;;;;;;4950381;28;20209;-62
2023/05/08 07:20:20;;;;;;;11.15;10.02;;;15.60;1.00;;;;;;4969130;28;20195;-62
2023/05/08 07:22:47;;;;;;;11.25;9.88;;;15.60;1.00;;;;;;4965731;28;20191;-62
2023/05/08 07:25:15;;;;;;;10.50;9.50;;;15.50;1.00;;;;;;4971456;28;20218;-63
2023/05/08 07:27:42;;;;;;;12.07;9.40;;;15.80;1.00;;;;;;4969703;28;20229;-62
2023/05/08 07:30:10;;;;;;;10.00;9.10;;;16.00;1.00;;;;;;4969664;28;20517;-61
2023/05/08 07:32:38;;;;;;;11.25;10.18;;;16.40;1.00;;;;;;4970237;28;20269;-66
2023/05/08 07:35:08;;;;;;;16.25;9.27;;;16.60;1.00;;;;;;4950664;28;20210;-67
2023/05/08 07:37:38;;;;;;;9.95;9.00;;;16.50;1.00;;;;;;4938310;28;20215;-65
2023/05/08 07:40:06;;;;;;;13.23;9.13;;;16.90;1.00;;;;;;4960024;28;20239;-66
2023/05/08 07:42:38;;;;;;;10.30;9.30;;;16.80;1.00;;;;;;4966222;28;20248;-65
2023/05/08 07:45:07;;;;;;;9.77;8.77;;;17.00;1.00;;;;;;4970380;28;20224;-65
2023/05/08 07:47:34;;;;;;;9.85;8.52;;;17.60;1.00;;;;;;4967302;28;20257;-65
2023/05/08 07:50:01;;;;;;;11.85;9.35;;;17.90;1.00;;;;;;4960581;28;20678;-64
2023/05/08 07:52:28;;;;;;;9.85;8.55;;;18.20;1.00;;;;;;4966831;28;20218;-64
2023/05/08 07:54:56;;;;;;;10.77;9.32;;;18.00;1.00;;;;;;4953803;28;20193;-66
2023/05/08 07:57:23;;;;;;;10.07;8.95;;;17.00;1.00;;;;;;4960860;28;20187;-66
2023/05/08 07:59:50;;;;;;;10.07;8.95;;;17.40;1.00;;;;;;4956672;28;20182;-66
2023/05/08 08:02:17;;;;;;;10.38;9.02;;;17.60;1.00;;;;;;4949784;28;20281;-65
2023/05/08 08:04:44;;;;;;;10.10;9.02;;;17.50;1.00;;;;;;4966360;28;20228;-65
2023/05/08 08:07:11;;;;;;;10.65;9.60;;;17.50;1.00;;;;;;4961129;28;20206;-65
2023/05/08 08:09:38;;;;;;;10.45;9.48;;;17.30;1.00;;;;;;4943820;28;20238;-65
2023/05/08 08:12:05;;;;;;;11.50;9.57;;;17.50;1.00;;;;;;4928355;29;20209;-66
2023/05/08 08:14:33;;;;;;;10.73;9.63;;;17.60;1.00;;;;;;4946311;28;20190;-65
2023/05/08 08:17:00;;;;;;;9.52;8.63;;;17.90;1.00;;;;;;4944285;28;20672;-66
2023/05/08 08:19:27;;;;;;;9.02;8.15;;;17.80;1.00;;;;;;4946576;28;20213;-65
2023/05/08 08:21:54;;;;;;;10.68;9.43;;;18.10;1.00;;;;;;4942730;28;20203;-64
2023/05/08 08:24:22;;;;;;;10.60;9.55;;;17.90;1.00;;;;;;4947831;28;20959;-65
2023/05/08 08:26:50;;;;;;;10.55;9.45;;;18.30;1.00;;;;;;4931326;29;20210;-65
2023/05/08 08:29:17;;;;;;;10.27;9.27;;;18.10;1.00;;;;;;4930195;28;20197;-65
2023/05/08 08:31:44;;;;;;;9.38;8.57;;;17.90;1.00;;;;;;4947400;28;20209;-65
2023/05/08 08:34:12;;;;;;;10.73;9.23;;;18.40;1.00;;;;;;4945206;28;20191;-66
2023/05/08 08:36:39;;;;;;;9.60;8.60;;;18.20;1.00;;;;;;4948623;28;20660;-66
2023/05/08 08:39:06;;;;;;;9.15;6.97;;;18.20;1.00;;;;;;4945541;28;20203;-65
2023/05/08 08:41:41;;;;;;;8.23;7.53;;;18.60;1.00;;;;;;4944342;28;20214;-65
2023/05/08 08:44:08;;;;;;;8.43;7.68;;;19.20;1.00;;;;;;4928320;28;20675;-65
2023/05/08 08:46:42;;;;;;;8.70;7.80;;;19.70;1.00;;;;;;4947788;28;20223;-66
2023/05/08 08:49:12;;;;;;;7.35;6.65;;;20.30;1.00;;;;;;4946938;28;20198;-66
2023/05/08 08:51:49;;;;;;;8.60;7.80;;;20.60;1.00;;;;;;4946956;28;20191;-66
2023/05/08 08:54:20;;;;;;;11.45;7.93;;;21.10;1.00;;;;;;4930719;28;20293;-66
2023/05/08 08:56:49;;;;;;;8.23;7.53;;;20.90;1.00;;;;;;4947686;28;20199;-65
2023/05/08 08:59:17;;;;;;;8.05;7.10;;;20.50;1.00;;;;;;4947244;28;20215;-64
2023/05/08 09:01:47;;;;;;;8.13;6.88;;;20.90;1.00;;;;;;4951018;28;20237;-64
2023/05/08 09:04:15;;;;;;;7.60;6.78;;;21.40;1.00;;;;;;4949584;28;20278;-64
2023/05/08 09:06:44;;;;;;;7.47;6.78;;;21.50;1.00;;;;;;4949716;28;20215;-64
2023/05/08 09:09:12;;;;;;;6.80;6.10;;;21.40;1.00;;;;;;4950437;28;21704;-65
2023/05/08 09:11:40;;;;;;;7.72;7.03;;;21.50;1.00;;;;;;4950833;28;20228;-65
2023/05/08 09:14:08;;;;;;;7.53;6.82;;;21.60;1.00;;;;;;4950275;28;20281;-64
2023/05/08 09:16:35;;;;;;;7.13;6.53;;;21.00;1.00;;;;;;4949943;28;20257;-64
2023/05/08 09:19:03;;;;;;;8.80;7.65;;;20.50;1.00;;;;;;4950370;28;20679;-65
2023/05/08 09:21:31;;;;;;;7.40;6.80;;;20.30;1.00;;;;;;4948850;28;20617;-66
2023/05/08 09:24:03;;;;;;;8.00;7.28;;;20.60;1.00;;;;;;4950949;28;21249;-64
2023/05/08 09:26:33;;;;;;;8.40;7.13;;;20.70;1.00;;;;;;4934211;29;20310;-66
2023/05/08 09:29:20;;;;;;;8.98;7.85;;;20.80;1.00;;;;;;4932518;29;20282;-66
2023/05/08 09:31:49;;;;;;;10.93;7.18;;;20.50;1.00;;;;;;4932887;29;20265;-65
2023/05/08 09:34:26;;;;;;;9.10;8.20;;;20.90;1.00;;;;;;4948894;28;20287;-64
2023/05/08 09:36:54;;;;;;;8.52;7.72;;;21.30;1.00;;;;;;4950623;28;20195;-64
2023/05/08 09:39:23;;;;;;;10.10;9.10;;;21.70;1.00;;;;;;4932431;28;20211;-66
2023/05/08 09:42:02;;;;;;;10.68;8.90;;;22.00;1.00;;;;;;4950472;28;20250;-64
2023/05/08 09:44:52;;;;;;;11.90;7.78;;;21.80;1.00;;;;;;4932536;28;20194;-65
2023/05/08 09:47:24;;;;;;;11.15;8.45;;;22.00;1.00;;;;;;4933254;29;20222;-64
2023/05/08 09:50:01;;;;;;;9.02;8.02;;;21.80;1.00;;;;;;4933205;29;20301;-64
2023/05/08 09:52:29;;;;;;;6.40;5.80;;;22.20;1.00;;;;;;4950748;28;20195;-66
2023/05/08 09:55:04;;;;;;;6.47;5.88;;;22.00;1.00;;;;;;4947438;28;20249;-66
2023/05/08 09:57:35;;;;;;;6.80;6.07;;;21.80;1.00;;;;;;4947505;28;20246;-64
2023/05/08 10:00:07;;;;;;;9.50;5.88;;;21.60;1.00;;;;;;4947330;28;20199;-64
2023/05/08 10:02:41;;;;;;;6.97;6.28;;;21.70;1.00;;;;;;4945387;28;20226;-64
2023/05/08 10:05:29;;;;;;;7.43;6.70;;;22.20;1.00;;;;;;4932013;29;20672;-65
2023/05/08 10:08:16;;;;;;;6.63;6.03;;;22.90;1.00;;;;;;4944594;28;20238;-63
2023/05/08 10:10:43;;;;;;;7.13;6.43;;;23.40;1.00;;;;;;4943729;28;20191;-64
2023/05/08 10:13:10;;;;;;;7.05;6.22;;;23.80;1.00;;;;;;4943747;28;20195;-65
2023/05/08 10:15:41;;;;;;;8.13;7.05;;;23.10;1.00;;;;;;4937708;28;20199;-65
2023/05/08 10:18:09;;;;;;;8.38;6.28;;;23.40;1.00;;;;;;4945754;28;20226;-65
2023/05/08 10:20:41;;;;;;;6.40;5.80;;;24.30;1.00;;;;;;4943887;28;20230;-64
2023/05/08 10:23:14;;;;;;;7.15;6.45;;;25.00;1.00;;;;;;4946890;28;21243;-63
2023/05/08 10:25:46;;;;;;;8.95;5.57;;;25.60;1.00;;;;;;4946335;28;20234;-63
2023/05/08 10:28:23;;;;;;;6.50;5.18;;;26.40;1.00;;;;;;4944963;28;20282;-63
2023/05/08 10:30:52;;;;;;;5.95;5.38;;;27.30;1.00;;;;;;4946328;28;20226;-63
2023/05/08 10:33:24;;;;;;;5.70;5.10;;;27.20;1.00;;;;;;4948190;28;20310;-63
2023/05/08 10:35:51;;;;;;;8.40;5.03;;;26.60;1.00;;;;;;4943820;28;20341;-63
2023/05/08 10:38:19;;;;;;;6.32;5.72;;;26.70;1.00;;;;;;4947262;28;20203;-63
2023/05/08 10:40:47;;;;;;;7.53;5.20;;;26.40;1.00;;;;;;4945852;28;20206;-63
2023/05/08 10:43:15;;;;;;;6.32;4.63;;;26.90;1.00;;;;;;4946768;28;20206;-65
2023/05/08 10:45:43;;;;;;;6.10;3.83;;;27.60;1.00;;;;;;4944983;28;20230;-63
2023/05/08 10:48:41;;;;;;;4.40;4.10;;;27.80;1.00;;;;;;4945793;28;20195;-64
2023/05/08 10:51:34;;;;;;;4.55;4.15;;;27.30;1.00;;;;;;4944734;28;20214;-64
2023/05/08 10:54:33;;;;;;;6.05;4.10;;;26.80;1.00;;;;;;4946351;28;20690;-64
2023/05/08 10:57:10;;;;;;;5.07;4.32;;;26.60;1.00;;;;;;4946468;28;20831;-65
2023/05/08 10:59:38;;;;;;;4.72;4.32;;;26.10;1.00;;;;;;4944640;28;20226;-64
2023/05/08 11:02:06;;;;;;;5.07;4.57;;;25.80;1.00;;;;;;4927591;29;20329;-64
2023/05/08 11:04:34;;;;;;;5.18;4.40;;;25.30;1.00;;;;;;4943022;28;20206;-64
2023/05/08 11:07:02;;;;;;;5.13;4.72;;;24.90;1.00;;;;;;4944799;28;20831;-65
2023/05/08 11:09:44;;;;;;;6.30;4.60;;;24.40;1.00;;;;;;4929083;29;20213;-65
2023/05/08 11:12:25;;;;;;;5.00;3.90;;;23.90;1.00;;;;;;4947424;28;20214;-66
2023/05/08 11:15:00;;;;;;;6.10;4.07;;;23.60;1.00;;;;;;4944602;28;20288;-66
2023/05/08 11:17:27;;;;;;;5.60;4.43;;;23.90;1.00;;;;;;4926157;29;20238;-65
2023/05/08 11:20:00;;;;;;;3.85;3.45;;;23.80;1.00;;;;;;4944597;28;20278;-65
2023/05/08 11:22:33;;;;;;;3.70;3.40;;;23.70;1.00;;;;;;4943985;28;20213;-65
2023/05/08 11:25:08;;;;;;;3.90;3.55;;;24.20;1.00;;;;;;4944479;28;20223;-64
2023/05/08 11:27:47;;;;;;;4.47;4.00;;;24.60;1.00;;;;;;4945262;28;20222;-65
2023/05/08 11:30:24;;;;;;;4.20;3.80;;;25.10;1.00;;;;;;4946310;28;20651;-64
2023/05/08 11:33:03;;;;;;;4.07;3.67;;;25.50;1.00;;;;;;4941938;28;20203;-65
2023/05/08 11:35:50;;;;;;;4.95;3.70;;;26.00;1.00;;;;;;4943201;28;20620;-63
2023/05/08 11:38:21;;;;;;;5.47;3.67;;;26.30;1.00;;;;;;4945831;28;20198;-59
2023/05/08 11:40:57;;;;;;;3.65;3.35;;;26.30;1.00;;;;;;4944464;28;20624;-60
2023/05/08 11:43:32;;;;;;;4.80;4.38;;;26.00;1.00;;;;;;4945747;28;20750;-60
2023/05/08 11:46:19;;;;;;;5.88;4.93;;;25.90;1.00;;;;;;4926578;28;20674;-60
2023/05/08 11:48:47;;;;;;;4.63;4.22;;;25.70;1.00;;;;;;4946626;28;20667;-60
2023/05/08 11:51:18;;;;;;;5.07;4.68;;;25.50;1.00;;;;;;4927011;28;20770;-60
2023/05/08 11:53:45;;;;;;;6.53;5.70;;;25.50;1.00;;;;;;4943575;28;21007;-60
2023/05/08 11:56:13;;;;;;;6.07;5.43;;;24.60;1.00;;;;;;4946066;28;20203;-60
2023/05/08 11:58:40;;;;;;;8.00;5.88;;;24.40;1.00;;;;;;4935777;28;20855;-61
2023/05/08 12:01:07;;;;;;;7.82;7.13;;;23.80;1.00;;;;;;4940356;28;20265;-60
2023/05/08 12:03:34;;;;;;;6.97;6.38;;;23.30;1.00;;;;;;4941965;28;20194;-61
2023/05/08 12:06:01;;;;;;;6.47;5.88;;;23.20;1.00;;;;;;4944994;28;20634;-60
2023/05/08 12:08:28;;;;;;;7.30;5.20;;;23.20;1.00;;;;;;4943107;28;20201;-62
2023/05/08 12:10:56;;;;;;;6.22;5.63;;;23.00;1.00;;;;;;4941736;28;20195;-60
2023/05/08 12:13:26;;;;;;;6.78;5.47;;;23.40;1.00;;;;;;4942387;28;20198;-60
2023/05/08 12:15:58;;;;;;;6.82;5.30;;;23.60;1.00;;;;;;4944487;28;20234;-62
2023/05/08 12:18:28;;;;;;;5.05;4.53;;;23.30;1.00;;;;;;4941102;28;20227;-60
2023/05/08 12:20:59;;;;;;;4.70;4.30;;;23.40;1.00;;;;;;4946998;28;20667;-61
2023/05/08 12:23:28;;;;;;;4.60;4.20;;;23.60;1.00;;;;;;4947837;28;20670;-61
2023/05/08 12:25:59;;;;;;;4.68;4.28;;;23.60;1.00;;;;;;4946451;28;20907;-60
2023/05/08 12:28:27;;;;;;;6.00;4.90;;;23.10;1.00;;;;;;4941389;28;20199;-62
2023/05/08 12:30:55;;;;;;;4.28;3.88;;;23.20;1.00;;;;;;4944334;28;20231;-60
2023/05/08 12:33:22;;;;;;;4.63;4.07;;;23.20;1.00;;;;;;4944560;28;20265;-59
2023/05/08 12:35:50;;;;;;;5.75;4.38;;;23.30;1.00;;;;;;4945945;28;20254;-60
2023/05/08 12:38:16;;;;;;;6.43;4.03;;;23.40;1.00;;;;;;4948433;28;20631;-60
2023/05/08 12:40:47;;;;;;;4.78;4.28;;;23.30;1.00;;;;;;4945509;28;20358;-60
2023/05/08 12:43:15;;;;;;;4.80;4.40;;;23.20;1.00;;;;;;4917324;29;20257;-60
2023/05/08 12:45:42;;;;;;;5.70;4.63;;;23.40;1.00;;;;;;4944910;28;20624;-60
2023/05/08 12:48:16;;;;;;;6.90;4.85;;;23.30;1.00;;;;;;4948276;28;20249;-61
2023/05/08 12:50:45;;;;;;;5.82;5.25;;;22.90;1.00;;;;;;4926183;28;20194;-60
2023/05/08 12:53:17;;;;;;;5.65;5.05;;;23.10;1.00;;;;;;4945200;28;20711;-62
2023/05/08 12:55:56;;;;;;;5.60;5.10;;;22.60;1.00;;;;;;4943858;28;20195;-60
2023/05/08 12:58:27;;;;;;;6.50;5.90;;;22.80;1.00;;;;;;4946716;28;20672;-60
2023/05/08 13:01:12;;;;;;;8.93;7.10;;;22.90;1.00;;;;;;4945302;28;20246;-60
2023/05/08 13:03:40;;;;;;;8.80;7.90;;;23.10;1.00;;;;;;4939628;28;20214;-60
2023/05/08 13:06:19;;;;;;;11.05;8.93;;;22.40;1.00;;;;;;4927855;28;20269;-62
2023/05/08 13:08:53;;;;;;;11.07;9.85;;;22.60;1.00;;;;;;4925589;28;20297;-61